Time;durP1;ratioP1;P1;durP2;ratioP2;P2;SDS_P1;SDS_P2;PMS_P1;PMS_P2;Temp;Humidity;BMP_temperature;BMP_pressure;BME280_temperature;BME280_humidity;BME280_pressure;Samples;Min_cycle;Max_cycle;Signal;HPM_P1;HPM_P2
2022/12/06 00:01:31;;;;;;;;;41.00;33.75;;;;;6.98;64.60;101731.47;4988145;28;45372;-74
2022/12/06 00:03:59;;;;;;;;;36.00;31.25;;;;;6.94;64.28;101721.72;4990206;28;45463;-74
2022/12/06 00:06:27;;;;;;;;;39.50;34.25;;;;;7.01;64.76;101731.44;4985432;28;45674;-74
2022/12/06 00:08:54;;;;;;;;;35.00;32.25;;;;;7.01;64.31;101722.59;4996640;28;45333;-74
2022/12/06 00:11:30;;;;;;;;;34.25;33.50;;;;;6.93;64.21;101714.63;4990798;28;45365;-74
2022/12/06 00:13:58;;;;;;;;;32.50;28.50;;;;;6.88;64.69;101716.41;4993565;28;45491;-74
2022/12/06 00:16:25;;;;;;;;;45.25;37.25;;;;;6.83;64.76;101716.44;4987429;28;45412;-74
2022/12/06 00:18:50;;;;;;;;;39.25;34.50;;;;;6.81;64.35;101720.84;4988230;28;45583;-74
2022/12/06 00:21:19;;;;;;;;;31.50;29.00;;;;;6.81;64.76;101712.88;4993439;28;45543;-74
2022/12/06 00:23:47;;;;;;;;;39.75;35.75;;;;;6.83;64.79;101708.50;4988232;28;45562;-74
2022/12/06 00:26:14;;;;;;;;;42.75;37.50;;;;;6.80;64.63;101707.59;4989164;28;45337;-74
2022/12/06 00:28:40;;;;;;;;;37.50;34.50;;;;;6.75;64.63;101698.75;4985352;28;45464;-74
2022/12/06 00:31:08;;;;;;;;;42.75;34.00;;;;;6.74;65.12;101691.69;4986230;28;45590;-74
2022/12/06 00:33:35;;;;;;;;;40.50;37.75;;;;;6.78;64.87;101696.09;4986380;28;45429;-74
2022/12/06 00:36:03;;;;;;;;;41.00;38.25;;;;;6.80;65.06;101694.31;4988067;28;45453;-74
2022/12/06 00:38:28;;;;;;;;;43.25;38.00;;;;;6.77;65.54;101676.66;4993708;28;45843;-74
2022/12/06 00:41:03;;;;;;;;;38.00;33.25;;;;;6.83;65.53;101691.66;4987218;28;46831;-74
2022/12/06 00:43:29;;;;;;;;;39.50;36.50;;;;;6.82;65.94;101688.13;4987803;28;47183;-74
2022/12/06 00:45:55;;;;;;;;;47.00;40.25;;;;;6.88;65.26;101694.31;4984911;28;46774;-74
2022/12/06 00:48:21;;;;;;;;;46.00;39.50;;;;;6.89;65.15;101682.81;5008884;28;45574;-74
2022/12/06 00:50:46;;;;;;;;;45.75;33.75;;;;;6.96;65.61;101685.44;5010114;28;45441;-74
2022/12/06 00:53:12;;;;;;;;;44.75;41.50;;;;;6.97;65.43;101684.56;5008677;28;46988;-74
2022/12/06 00:55:37;;;;;;;;;44.75;37.75;;;;;7.02;65.28;101684.56;5001627;28;45385;-74
2022/12/06 00:58:02;;;;;;;;;43.00;38.00;;;;;7.02;65.75;101689.88;5008100;28;45583;-74
2022/12/06 01:00:28;;;;;;;;;52.00;37.50;;;;;7.05;65.31;101687.22;5000869;28;45458;-74
2022/12/06 01:02:53;;;;;;;;;39.75;33.25;;;;;7.02;65.18;101685.44;5004849;28;45428;-74
2022/12/06 01:05:18;;;;;;;;;42.50;33.75;;;;;7.04;65.06;101694.28;5012357;28;45653;-74
2022/12/06 01:07:44;;;;;;;;;44.50;36.00;;;;;6.97;65.11;101689.88;5002242;28;45328;-74
2022/12/06 01:10:10;;;;;;;;;42.25;34.75;;;;;6.95;65.19;101683.69;5009301;28;45296;-74
2022/12/06 01:12:36;;;;;;;;;30.25;22.00;;;;;6.94;65.36;101691.66;5008249;28;45517;-74
2022/12/06 01:15:02;;;;;;;;;41.25;37.75;;;;;6.87;64.57;101696.09;4995571;28;46275;-75
2022/12/06 01:17:28;;;;;;;;;42.00;37.50;;;;;6.83;65.46;101684.59;5007079;28;45554;-74
2022/12/06 01:19:53;;;;;;;;;36.75;33.25;;;;;6.81;65.47;101689.00;5003992;28;45464;-74
2022/12/06 01:22:18;;;;;;;;;48.25;37.25;;;;;6.86;65.58;101689.00;5007874;28;45365;-75
2022/12/06 01:24:46;;;;;;;;;43.00;33.25;;;;;6.91;65.92;101689.00;5012589;28;46450;-74
2022/12/06 01:27:11;;;;;;;;;51.25;40.25;;;;;6.93;65.87;101685.44;5005261;28;46060;-74
2022/12/06 01:29:36;;;;;;;;;39.25;35.50;;;;;6.93;65.41;101696.06;5005717;28;45723;-74
2022/12/06 01:32:02;;;;;;;;;45.50;37.00;;;;;6.86;65.39;101687.22;5016653;28;46003;-74
2022/12/06 01:34:27;;;;;;;;;41.25;34.25;;;;;6.81;65.67;101688.13;5006251;28;46124;-74
2022/12/06 01:36:52;;;;;;;;;33.00;31.25;;;;;6.75;65.47;101682.81;5010021;28;51685;-74
2022/12/06 01:39:19;;;;;;;;;34.25;32.00;;;;;6.76;65.04;101676.66;4993646;28;45777;-75
2022/12/06 01:41:44;;;;;;;;;39.50;30.50;;;;;6.75;65.54;101675.78;5003256;28;46697;-74
2022/12/06 01:44:56;;;;;;;;;20.75;18.50;;;;;6.78;65.91;101680.16;5015001;28;45405;-74
2022/12/06 01:47:28;;;;;;;;;41.25;36.00;;;;;6.74;65.96;101681.94;5005049;28;45912;-74
2022/12/06 01:50:03;;;;;;;;;32.00;30.50;;;;;6.79;65.89;101687.25;5000961;28;46452;-74
2022/12/06 01:52:34;;;;;;;;;35.00;29.50;;;;;6.83;66.43;101681.94;5001964;28;45499;-74
2022/12/06 01:55:02;;;;;;;;;42.00;35.00;;;;;6.83;66.51;101689.91;5004648;28;46139;-74
2022/12/06 01:57:28;;;;;;;;;36.25;34.75;;;;;6.84;66.02;101680.16;5009413;28;45743;-74
2022/12/06 01:59:54;;;;;;;;;41.25;31.00;;;;;6.90;66.01;101676.59;5009181;28;45462;-74
2022/12/06 02:02:19;;;;;;;;;36.75;32.75;;;;;6.95;66.47;101683.69;5006913;28;45405;-74
2022/12/06 02:04:46;;;;;;;;;39.75;34.50;;;;;7.00;66.58;101688.97;4999298;28;46187;-74
2022/12/06 02:07:12;;;;;;;;;40.00;33.00;;;;;7.02;66.26;101685.44;5002739;28;45910;-74
2022/12/06 02:09:38;;;;;;;;;42.25;35.50;;;;;7.03;66.19;101681.91;5005419;28;46036;-74
2022/12/06 02:12:11;;;;;;;;;38.25;33.75;;;;;7.02;66.08;101682.78;5008216;28;45301;-74
2022/12/06 02:14:36;;;;;;;;;43.25;38.00;;;;;7.04;66.13;101693.41;5009745;28;46549;-74
2022/12/06 02:17:20;;;;;;;;;32.25;24.75;;;;;7.08;66.18;101691.63;5008120;28;45483;-74
2022/12/06 02:20:04;;;;;;;;;40.50;35.75;;;;;7.07;66.28;101693.41;5004486;28;45725;-74
2022/12/06 02:22:46;;;;;;;;;37.00;32.50;;;;;7.06;66.13;101691.63;5003385;28;45451;-74
2022/12/06 02:25:20;;;;;;;;;40.00;33.50;;;;;7.04;65.64;101699.59;5007136;28;46158;-74
2022/12/06 02:28:09;;;;;;;;;36.25;30.25;;;;;6.96;65.91;101696.06;5013780;28;46778;-74
2022/12/06 02:30:43;;;;;;;;;34.00;31.25;;;;;6.85;65.66;101687.25;5010363;28;45425;-74
2022/12/06 02:33:23;;;;;;;;;38.25;32.00;;;;;6.77;66.12;101679.31;5009005;28;45459;-74
2022/12/06 02:36:05;;;;;;;;;37.50;31.25;;;;;6.81;65.98;101704.94;5004132;28;45654;-74
2022/12/06 02:38:45;;;;;;;;;34.50;29.75;;;;;6.79;66.35;101696.09;5002366;28;45892;-74
2022/12/06 02:41:52;;;;;;;;;38.25;33.00;;;;;6.85;66.21;101703.19;4998606;28;45397;-74
2022/12/06 02:44:26;;;;;;;;;36.25;31.00;;;;;6.85;66.90;101693.44;5006219;28;46005;-74
2022/12/06 02:46:55;;;;;;;;;32.75;30.25;;;;;6.85;66.74;101692.56;5004672;28;45687;-74
2022/12/06 02:49:24;;;;;;;;;20.50;15.75;;;;;6.85;66.46;101682.81;5002720;28;45840;-74
2022/12/06 02:51:53;;;;;;;;;28.50;26.00;;;;;6.81;65.98;101690.78;4995385;28;45413;-74
2022/12/06 02:54:21;;;;;;;;;33.75;26.25;;;;;6.75;66.32;101685.47;5005015;28;45341;-74
2022/12/06 02:56:47;;;;;;;;;34.50;26.75;;;;;6.75;66.51;101680.16;5000723;28;46805;-74
2022/12/06 02:59:12;;;;;;;;;27.75;24.25;;;;;6.73;66.83;101680.16;5009891;28;45368;-74
2022/12/06 03:01:44;;;;;;;;;28.50;24.50;;;;;6.71;66.87;101683.72;5004200;28;45487;-74
2022/12/06 03:04:32;;;;;;;;;29.75;27.50;;;;;6.69;66.70;101689.03;5003085;28;45443;-74
2022/12/06 03:07:00;;;;;;;;;40.00;31.50;;;;;6.71;67.35;101687.25;5005338;28;45464;-74
2022/12/06 03:09:56;;;;;;;;;29.00;26.75;;;;;6.73;66.58;101689.91;4999160;28;45415;-74
2022/12/06 03:12:40;;;;;;;;;38.00;29.75;;;;;6.74;66.87;101695.22;5004007;28;45487;-74
2022/12/06 03:15:17;;;;;;;;;35.75;31.50;;;;;6.77;67.38;101689.91;5008238;28;45415;-74
2022/12/06 03:17:50;;;;;;;;;35.00;31.50;;;;;6.79;67.44;101680.16;4997170;28;45508;-74
2022/12/06 03:20:32;;;;;;;;;28.25;26.25;;;;;6.84;66.75;101688.13;4995611;28;45594;-75
2022/12/06 03:23:03;;;;;;;;;40.75;30.25;;;;;6.81;66.96;101690.78;5007219;28;45526;-74
2022/12/06 03:25:32;;;;;;;;;32.75;30.50;;;;;6.75;67.03;101693.44;4998946;28;45543;-74
2022/12/06 03:28:00;;;;;;;;;33.75;26.25;;;;;6.70;67.35;101687.25;5006112;28;46022;-74
2022/12/06 03:30:30;;;;;;;;;34.00;28.75;;;;;6.71;67.27;101697.00;5012828;28;45537;-75
2022/12/06 03:32:55;;;;;;;;;30.50;28.00;;;;;6.74;67.56;101689.03;5012424;28;45459;-74
2022/12/06 03:35:27;;;;;;;;;31.75;29.75;;;;;6.73;67.40;101682.81;5000147;28;45702;-74
2022/12/06 03:38:00;;;;;;;;;30.25;28.25;;;;;6.70;67.71;101689.91;5005796;28;45517;-74
2022/12/06 03:40:30;;;;;;;;;33.75;29.25;;;;;6.72;67.32;101691.69;5002060;28;46901;-74
2022/12/06 03:42:56;;;;;;;;;19.75;16.50;;;;;6.77;67.68;101699.66;5009139;28;45519;-74
2022/12/06 03:45:28;;;;;;;;;29.25;26.75;;;;;6.75;67.64;101685.47;5000640;28;45743;-74
2022/12/06 03:47:56;;;;;;;;;33.75;28.25;;;;;6.79;68.00;101695.22;5003801;28;46187;-74
2022/12/06 03:50:31;;;;;;;;;33.25;27.25;;;;;6.80;67.48;101684.59;5005855;28;45761;-74
2022/12/06 03:52:56;;;;;;;;;29.25;27.00;;;;;6.82;67.56;101680.16;4999282;28;45439;-74
2022/12/06 03:55:21;;;;;;;;;33.75;28.75;;;;;6.90;67.28;101690.78;4999219;28;45522;-74
2022/12/06 03:57:47;;;;;;;;;33.00;28.50;;;;;6.90;67.78;101684.56;5001745;28;46250;-74
2022/12/06 04:00:15;;;;;;;;;34.75;30.25;;;;;6.93;67.54;101680.13;5004218;28;45474;-74
2022/12/06 04:02:40;;;;;;;;;38.75;31.25;;;;;6.92;67.09;101677.50;5006438;28;45630;-74
2022/12/06 04:05:06;;;;;;;;;31.75;30.50;;;;;6.92;67.37;101680.16;5006908;28;45544;-74
2022/12/06 04:07:31;;;;;;;;;33.75;30.00;;;;;6.93;67.68;101689.88;5003739;28;45778;-74
2022/12/06 04:10:02;;;;;;;;;28.25;22.50;;;;;6.94;67.65;101692.53;5005773;28;45288;-74
2022/12/06 04:15:14;;;;;;;;;42.50;35.50;;;;;7.00;67.32;101686.31;5005373;28;45470;-74
2022/12/06 04:20:26;;;;;;;;;33.75;29.25;;;;;6.95;67.35;101683.69;5000581;28;45730;-74
2022/12/06 04:23:04;;;;;;;;;40.00;33.75;;;;;6.95;67.48;101694.31;5002504;28;45398;-74
2022/12/06 04:25:33;;;;;;;;;38.50;28.00;;;;;6.93;67.56;101688.09;5006691;28;45554;-74
2022/12/06 04:38:56;;;;;;;;;39.00;30.25;;;;;7.04;67.92;101682.78;5010110;28;45656;-74
2022/12/06 04:44:06;;;;;;;;;35.00;32.00;;;;;7.00;67.65;101681.91;5007318;28;45535;-74
2022/12/06 04:46:32;;;;;;;;;38.25;33.25;;;;;6.99;67.93;101677.47;5005762;28;45718;-74
2022/12/06 04:48:57;;;;;;;;;46.75;37.50;;;;;6.98;67.70;101673.06;5007551;28;45432;-74
2022/12/06 04:51:23;;;;;;;;;42.00;37.50;;;;;6.96;68.35;101674.81;5008330;28;45341;-74
2022/12/06 04:53:48;;;;;;;;;38.25;31.25;;;;;6.96;67.87;101680.13;5001886;28;45597;-74
2022/12/06 04:56:14;;;;;;;;;40.00;34.50;;;;;6.96;68.38;101671.28;5005248;28;46062;-75
2022/12/06 04:58:40;;;;;;;;;46.50;38.75;;;;;6.94;68.24;101673.94;5010206;28;45380;-74
2022/12/06 05:01:05;;;;;;;;;37.00;33.25;;;;;6.95;68.11;101674.81;5000363;28;45469;-74
2022/12/06 05:03:30;;;;;;;;;37.00;33.50;;;;;6.93;68.29;101677.47;5010545;28;45470;-74
2022/12/06 05:05:55;;;;;;;;;38.75;33.25;;;;;6.93;68.05;101673.94;5001879;28;45536;-74
2022/12/06 05:08:21;;;;;;;;;42.00;34.50;;;;;6.88;68.25;101673.06;5006938;28;46115;-74
2022/12/06 05:10:47;;;;;;;;;42.50;35.00;;;;;6.85;68.08;101674.84;5014007;28;46974;-74
2022/12/06 05:13:14;;;;;;;;;33.00;30.00;;;;;6.89;68.32;101672.22;5007678;28;45555;-74
2022/12/06 05:15:48;;;;;;;;;40.75;35.75;;;;;6.89;68.58;101666.91;5004794;28;45655;-74
2022/12/06 05:18:13;;;;;;;;;38.50;33.25;;;;;6.89;68.26;101659.81;5003448;28;46022;-74
2022/12/06 05:20:38;;;;;;;;;40.75;33.25;;;;;6.90;68.50;101666.00;5006439;28;45462;-74
2022/12/06 05:23:03;;;;;;;;;35.50;30.00;;;;;6.89;68.72;101657.16;5006599;28;45456;-74
2022/12/06 05:25:29;;;;;;;;;36.00;31.00;;;;;6.89;68.58;101656.28;5008666;28;46912;-74
2022/12/06 05:27:54;;;;;;;;;37.00;34.00;;;;;6.91;68.78;101663.34;5005132;28;50513;-74
2022/12/06 05:30:19;;;;;;;;;38.25;33.25;;;;;6.95;68.49;101666.84;5007519;28;50199;-74
2022/12/06 05:32:45;;;;;;;;;34.00;29.75;;;;;6.93;68.83;101653.59;5009287;28;45887;-74
2022/12/06 05:35:10;;;;;;;;;36.75;33.00;;;;;6.99;68.61;101658.00;5006764;28;45592;-74
2022/12/06 05:37:35;;;;;;;;;33.25;29.50;;;;;7.01;68.94;101657.09;5008090;28;45424;-74
2022/12/06 05:40:01;;;;;;;;;36.50;32.75;;;;;7.07;68.61;101652.66;5004387;28;46309;-74
2022/12/06 05:42:26;;;;;;;;;31.25;28.00;;;;;7.10;68.52;101648.25;5006274;28;45423;-74
2022/12/06 05:44:51;;;;;;;;;34.00;33.00;;;;;7.13;68.46;101650.88;5011297;28;45508;-74
2022/12/06 05:47:17;;;;;;;;;41.75;38.00;;;;;7.19;68.43;101650.84;5011131;28;53313;-74
2022/12/06 05:49:42;;;;;;;;;34.00;29.75;;;;;7.21;68.69;101638.44;5001483;28;45505;-74
2022/12/06 05:52:08;;;;;;;;;36.75;31.50;;;;;7.21;68.22;101642.88;5004418;28;45324;-74
2022/12/06 05:54:34;;;;;;;;;37.50;33.50;;;;;7.27;68.69;101648.19;5006046;28;46889;-74
2022/12/06 05:56:59;;;;;;;;;43.00;36.00;;;;;7.29;68.48;101646.41;4992130;28;47134;-74
2022/12/06 05:59:24;;;;;;;;;38.75;37.75;;;;;7.28;68.05;101643.75;5002449;28;46755;-74
2022/12/06 06:01:50;;;;;;;;;23.00;21.50;;;;;7.23;68.40;101636.69;5008133;28;48533;-74
2022/12/06 06:04:15;;;;;;;;;38.00;31.75;;;;;7.32;68.78;101649.03;5004336;28;45899;-74
2022/12/06 06:06:40;;;;;;;;;38.75;30.50;;;;;7.33;68.63;101640.16;5008594;28;45491;-74
2022/12/06 06:09:05;;;;;;;;;37.50;27.00;;;;;7.32;68.79;101648.19;5006208;28;50747;-75
2022/12/06 06:11:31;;;;;;;;;38.75;30.50;;;;;7.32;68.56;101648.19;5008016;28;45448;-76
2022/12/06 06:13:56;;;;;;;;;33.75;26.25;;;;;7.32;68.40;101643.72;5005564;28;45483;-76
2022/12/06 06:16:21;;;;;;;;;35.00;31.75;;;;;7.35;68.54;101651.69;5002711;28;47171;-76
2022/12/06 06:18:47;;;;;;;;;40.00;32.75;;;;;7.38;68.21;101650.78;5000266;28;45512;-76
2022/12/06 06:21:12;;;;;;;;;37.00;34.75;;;;;7.38;68.22;101656.09;5002812;28;45613;-72
2022/12/06 06:23:38;;;;;;;;;36.75;30.25;;;;;7.34;68.32;101641.94;5016435;28;45829;-74
2022/12/06 06:26:09;;;;;;;;;35.00;30.00;;;;;7.40;68.48;101660.53;5010940;28;45508;-74
2022/12/06 06:28:34;;;;;;;;;33.25;28.50;;;;;7.39;68.18;101661.41;5005992;28;45556;-75
2022/12/06 06:31:04;;;;;;;;;39.50;35.50;;;;;7.37;68.10;101655.22;5009589;28;45339;-74
2022/12/06 06:33:30;;;;;;;;;37.75;32.00;;;;;7.39;68.45;101653.44;5005143;28;45526;-75
2022/12/06 06:35:56;;;;;;;;;27.75;20.75;;;;;7.41;68.27;101650.78;5006446;28;45328;-75
2022/12/06 06:38:21;;;;;;;;;37.75;31.75;;;;;7.44;68.53;101653.41;5005525;28;45559;-75
2022/12/06 06:40:46;;;;;;;;;37.25;31.50;;;;;7.44;68.63;101657.84;5005079;28;46740;-75
2022/12/06 06:43:17;;;;;;;;;36.00;29.25;;;;;7.48;68.55;101664.91;5009790;28;45540;-75
2022/12/06 06:46:05;;;;;;;;;42.50;37.00;;;;;7.45;68.59;101662.25;5010534;28;46764;-74
2022/12/06 06:48:34;;;;;;;;;32.00;30.00;;;;;7.42;68.53;101663.19;5004415;28;45474;-75
2022/12/06 06:51:10;;;;;;;;;40.25;26.25;;;;;7.45;68.33;101667.56;4999656;28;45503;-75
2022/12/06 06:53:36;;;;;;;;;39.00;35.50;;;;;7.42;68.49;101672.03;4994104;28;45671;-75
2022/12/06 06:56:01;;;;;;;;;39.00;33.50;;;;;7.44;68.99;101665.81;4996835;28;46129;-74
2022/12/06 06:58:27;;;;;;;;;37.25;29.75;;;;;7.45;68.34;101671.13;5001438;28;45398;-75
2022/12/06 07:00:54;;;;;;;;;34.50;29.25;;;;;7.46;68.88;101675.53;5003711;28;45594;-74
2022/12/06 07:03:20;;;;;;;;;43.25;38.50;;;;;7.39;68.51;101660.53;5001304;28;45487;-73
2022/12/06 07:05:53;;;;;;;;;41.75;31.75;;;;;7.47;68.62;101668.44;5009946;28;45976;-70
2022/12/06 07:08:19;;;;;;;;;39.00;31.00;;;;;7.46;68.64;101662.25;5003518;28;45417;-72
2022/12/06 07:10:47;;;;;;;;;39.25;35.50;;;;;7.46;68.70;101666.69;4999505;28;45447;-73
2022/12/06 07:13:14;;;;;;;;;36.50;33.25;;;;;7.46;68.98;101669.34;5006373;28;45396;-72
2022/12/06 07:15:39;;;;;;;;;46.75;35.25;;;;;7.42;68.70;101663.19;5014108;28;46198;-71
2022/12/06 07:18:05;;;;;;;;;47.25;37.25;;;;;7.42;69.01;101671.16;5004908;28;45303;-71
2022/12/06 07:20:30;;;;;;;;;43.25;37.50;;;;;7.35;68.72;101662.31;4999028;28;45323;-72
2022/12/06 07:22:55;;;;;;;;;44.25;37.25;;;;;7.36;68.86;101661.41;5007163;28;52260;-71
2022/12/06 07:25:21;;;;;;;;;48.50;37.25;;;;;7.38;68.62;101661.41;5009621;28;47035;-72
2022/12/06 07:27:46;;;;;;;;;47.75;37.25;;;;;7.36;68.91;101658.75;5005587;28;46415;-72
2022/12/06 07:30:12;;;;;;;;;44.25;39.75;;;;;7.38;68.95;101661.41;5005314;28;46008;-72
2022/12/06 07:32:37;;;;;;;;;42.75;37.25;;;;;7.38;68.67;101662.31;4999793;28;45516;-72
2022/12/06 07:35:03;;;;;;;;;50.75;39.25;;;;;7.38;68.75;101664.06;5015034;28;45369;-72
2022/12/06 07:37:29;;;;;;;;;40.00;36.75;;;;;7.38;68.89;101666.72;5009320;28;46738;-71
2022/12/06 07:39:54;;;;;;;;;38.25;33.75;;;;;7.34;68.82;101660.53;5001660;28;45309;-75
2022/12/06 07:45:06;;;;;;;;;42.25;32.75;;;;;7.41;68.72;101670.25;5001861;28;45713;-75
2022/12/06 07:47:42;;;;;;;;;37.25;34.25;;;;;7.42;68.76;101663.19;5004852;28;45365;-75
2022/12/06 07:50:11;;;;;;;;;34.00;33.50;;;;;7.47;69.04;101663.13;5005460;28;45584;-75
2022/12/06 07:52:36;;;;;;;;;41.75;37.50;;;;;7.46;68.64;101656.06;5007475;28;45365;-75
2022/12/06 07:55:04;;;;;;;;;44.75;38.00;;;;;7.54;68.93;101656.91;4996696;28;45357;-73
2022/12/06 07:57:29;;;;;;;;;43.25;34.00;;;;;7.58;69.21;101664.88;5000202;28;45404;-73
2022/12/06 07:59:55;;;;;;;;;44.50;35.00;;;;;7.60;68.98;101663.09;5012214;28;45481;-72
2022/12/06 08:02:24;;;;;;;;;40.75;37.50;;;;;7.62;69.03;101668.38;5003551;28;45297;-72
2022/12/06 08:04:49;;;;;;;;;42.00;34.00;;;;;7.57;68.82;101659.56;5004150;28;46375;-72
2022/12/06 08:07:15;;;;;;;;;48.00;37.00;;;;;7.55;68.92;101661.31;5009774;28;45349;-72
2022/12/06 08:09:40;;;;;;;;;28.50;27.50;;;;;7.60;69.08;101667.50;5018397;28;49118;-72
2022/12/06 08:12:07;;;;;;;;;38.75;31.75;;;;;7.63;69.25;101674.56;5009125;28;45633;-72
2022/12/06 08:14:32;;;;;;;;;44.50;37.75;;;;;7.61;68.98;101677.25;5012847;28;46326;-72
2022/12/06 08:16:57;;;;;;;;;34.75;30.50;;;;;7.57;68.92;101678.16;5005546;28;45404;-72
2022/12/06 08:19:22;;;;;;;;;40.00;34.75;;;;;7.51;69.40;101675.53;5007675;28;46693;-72
2022/12/06 08:21:48;;;;;;;;;43.25;36.25;;;;;7.53;69.44;101679.06;5003948;28;45475;-74
2022/12/06 08:24:13;;;;;;;;;42.50;34.25;;;;;7.55;69.49;101690.53;5005959;28;48102;-74
2022/12/06 08:26:39;;;;;;;;;45.75;36.75;;;;;7.61;69.23;101695.84;5010132;28;45715;-74
2022/12/06 08:29:04;;;;;;;;;46.75;38.75;;;;;7.62;69.16;101697.63;5006608;28;45417;-74
2022/12/06 08:31:30;;;;;;;;;35.75;32.00;;;;;7.57;69.59;101697.63;5010809;28;45602;-74
2022/12/06 08:33:56;;;;;;;;;34.25;31.50;;;;;7.53;69.27;101695.00;5004746;28;45946;-74
2022/12/06 08:36:23;;;;;;;;;38.00;36.50;;;;;7.52;69.38;101706.53;5010262;28;46393;-74
2022/12/06 08:38:50;;;;;;;;;38.75;33.75;;;;;7.52;69.45;101696.78;5010617;28;45409;-74
2022/12/06 08:44:01;;;;;;;;;37.75;35.25;;;;;7.58;69.77;101707.38;5006539;28;45468;-75
2022/12/06 08:46:27;;;;;;;;;41.25;34.25;;;;;7.60;69.32;101702.03;5011619;28;45509;-74
2022/12/06 08:48:53;;;;;;;;;32.00;27.50;;;;;7.66;69.57;101712.66;5002733;28;45540;-74
2022/12/06 08:51:18;;;;;;;;;49.75;37.25;;;;;7.71;69.80;101721.47;5010522;28;45595;-74
2022/12/06 08:53:43;;;;;;;;;51.25;42.25;;;;;7.74;69.81;101721.47;5002311;28;45464;-74
2022/12/06 08:56:09;;;;;;;;;40.25;36.75;;;;;7.75;69.63;101717.94;5012517;28;45527;-75
2022/12/06 08:58:35;;;;;;;;;52.50;41.75;;;;;7.79;69.55;101716.13;4986273;28;45382;-74
2022/12/06 09:01:07;;;;;;;;;54.50;43.25;;;;;7.84;69.73;101729.41;5010828;28;45320;-74
2022/12/06 09:03:33;;;;;;;;;57.50;44.50;;;;;7.80;69.95;101717.88;5009653;28;45412;-74
2022/12/06 09:06:01;;;;;;;;;54.50;40.75;;;;;7.83;70.02;101724.97;5004517;28;45486;-74
2022/12/06 09:08:27;;;;;;;;;49.00;39.00;;;;;7.86;69.86;101725.84;4990184;28;45557;-74
2022/12/06 09:10:52;;;;;;;;;44.75;34.75;;;;;7.88;69.87;101728.47;5002339;28;45433;-74
2022/12/06 09:13:17;;;;;;;;;53.75;42.50;;;;;7.92;69.66;101741.75;5016448;28;48029;-74
2022/12/06 09:15:42;;;;;;;;;61.00;45.25;;;;;7.93;69.76;101734.66;5007797;28;46848;-74
2022/12/06 09:18:08;;;;;;;;;48.50;42.25;;;;;7.91;69.92;101728.47;5004293;28;45371;-74
2022/12/06 09:20:33;;;;;;;;;51.50;39.75;;;;;7.95;69.92;101740.84;5006149;28;45448;-74
2022/12/06 09:22:58;;;;;;;;;49.75;41.75;;;;;7.98;69.81;101743.50;5016005;28;45498;-74
2022/12/06 09:25:24;;;;;;;;;51.00;41.25;;;;;7.99;69.92;101742.59;5013455;28;45405;-74
2022/12/06 09:27:49;;;;;;;;;50.75;38.50;;;;;8.03;69.86;101741.69;5005386;28;45327;-74
2022/12/06 09:30:15;;;;;;;;;45.00;40.25;;;;;8.06;69.96;101746.13;5007126;28;46029;-74
2022/12/06 09:32:40;;;;;;;;;52.25;41.75;;;;;8.08;69.84;101745.19;5010438;28;45492;-74
2022/12/06 09:35:06;;;;;;;;;44.50;39.25;;;;;8.11;69.98;101742.53;5006323;28;45468;-74
2022/12/06 09:37:32;;;;;;;;;47.25;42.75;;;;;8.12;70.09;101740.78;5009909;28;45660;-74
2022/12/06 09:40:01;;;;;;;;;39.75;32.50;;;;;8.15;70.14;101744.28;5005057;28;45908;-75
2022/12/06 09:42:37;;;;;;;;;54.50;40.50;;;;;8.13;69.89;101735.41;5009247;28;45559;-74
2022/12/06 09:45:16;;;;;;;;;48.25;40.75;;;;;8.16;70.16;101731.88;5003986;28;45491;-74
2022/12/06 09:48:07;;;;;;;;;44.25;38.25;;;;;8.21;70.03;101746.00;5010305;28;45409;-74
2022/12/06 09:50:55;;;;;;;;;46.50;39.00;;;;;8.25;69.88;101752.19;5012869;28;45433;-74
2022/12/06 09:53:32;;;;;;;;;46.25;36.25;;;;;8.25;69.51;101755.75;5003017;28;45332;-74
2022/12/06 09:56:22;;;;;;;;;42.75;39.25;;;;;8.26;70.40;101756.63;5002384;28;45326;-74
2022/12/06 09:58:48;;;;;;;;;41.00;37.25;;;;;8.23;70.26;101748.66;5003162;28;46891;-74
2022/12/06 10:01:28;;;;;;;;;44.75;35.50;;;;;8.23;70.11;101752.19;5008518;28;45352;-75
2022/12/06 10:04:21;;;;;;;;;46.50;39.00;;;;;8.25;70.08;101752.19;5001811;28;45488;-74
2022/12/06 10:07:04;;;;;;;;;46.25;38.75;;;;;8.25;70.37;101749.53;5013837;28;45389;-74
2022/12/06 10:09:44;;;;;;;;;37.50;32.50;;;;;8.23;70.44;101756.66;5004750;28;45298;-74
2022/12/06 10:12:24;;;;;;;;;55.50;42.25;;;;;8.23;70.36;101751.31;5015998;28;46182;-73
2022/12/06 10:15:14;;;;;;;;;43.50;37.00;;;;;8.21;70.24;101747.81;5005083;28;46421;-74
2022/12/06 10:17:55;;;;;;;;;45.75;37.50;;;;;8.21;70.74;101750.47;5008624;28;45440;-74
2022/12/06 10:20:29;;;;;;;;;54.75;41.50;;;;;8.18;70.49;101745.16;5010662;28;45508;-74
2022/12/06 10:23:11;;;;;;;;;46.00;37.50;;;;;8.14;70.61;101741.63;5010372;28;45444;-74
2022/12/06 10:25:45;;;;;;;;;57.00;42.25;;;;;8.10;70.69;101735.47;5001218;28;46323;-74
2022/12/06 10:28:50;;;;;;;;;41.25;35.50;;;;;8.15;70.62;101744.28;5013885;28;45484;-74
2022/12/06 10:31:21;;;;;;;;;49.50;38.50;;;;;8.08;70.43;101729.25;4979738;28;45335;-74
2022/12/06 10:33:54;;;;;;;;;39.50;36.25;;;;;8.20;70.33;101746.03;5019120;28;45452;-74
2022/12/06 10:36:32;;;;;;;;;42.75;35.00;;;;;8.18;70.56;101742.50;5007700;28;46260;-74
2022/12/06 10:39:14;;;;;;;;;49.75;40.00;;;;;8.22;70.60;101750.47;5006976;28;45706;-74
2022/12/06 10:41:51;;;;;;;;;48.75;40.00;;;;;8.20;70.69;101746.03;5008043;28;45419;-74
2022/12/06 10:44:24;;;;;;;;;44.50;40.00;;;;;8.25;70.66;101754.84;5009034;28;45431;-74
2022/12/06 10:47:05;;;;;;;;;44.75;37.00;;;;;8.26;70.50;101748.66;5014468;28;45539;-74
2022/12/06 10:49:46;;;;;;;;;42.25;37.25;;;;;8.27;70.33;101755.72;4999566;28;45401;-74
2022/12/06 10:52:28;;;;;;;;;45.75;39.00;;;;;8.26;70.75;101752.19;5002313;28;45481;-72
2022/12/06 10:54:59;;;;;;;;;43.00;34.25;;;;;8.25;70.69;101742.47;4999527;28;45452;-76
2022/12/06 10:57:40;;;;;;;;;46.25;37.00;;;;;8.25;70.84;101738.91;5004219;28;46187;-73
2022/12/06 11:00:12;;;;;;;;;40.25;34.50;;;;;8.25;70.76;101750.44;5006016;28;45393;-69
2022/12/06 11:03:03;;;;;;;;;36.75;32.50;;;;;8.27;70.87;101745.06;5006510;28;45395;-70
2022/12/06 11:05:39;;;;;;;;;36.50;30.25;;;;;8.29;70.44;101730.88;5004528;28;46976;-71
2022/12/06 11:08:15;;;;;;;;;39.00;36.25;;;;;8.29;70.54;101735.34;5002134;28;47143;-75
2022/12/06 11:10:43;;;;;;;;;41.00;30.50;;;;;8.32;70.65;101730.00;5000654;28;45469;-74
2022/12/06 11:13:28;;;;;;;;;34.50;31.75;;;;;8.33;70.49;101735.28;5007438;28;45395;-75
2022/12/06 11:16:06;;;;;;;;;35.00;30.50;;;;;8.34;70.41;101737.06;5010583;28;45345;-74
2022/12/06 11:18:32;;;;;;;;;40.25;35.75;;;;;8.34;70.65;101730.88;5015005;28;45347;-75
2022/12/06 11:21:26;;;;;;;;;36.50;33.00;;;;;8.38;70.29;101729.06;5005976;28;45890;-75
2022/12/06 11:24:14;;;;;;;;;33.00;32.25;;;;;8.38;70.39;101724.59;4999161;28;45305;-75
2022/12/06 11:27:03;;;;;;;;;37.00;33.25;;;;;8.40;70.47;101727.25;5007914;28;45450;-75
2022/12/06 11:29:29;;;;;;;;;41.50;33.50;;;;;8.39;70.70;101723.72;5006920;28;46233;-75
2022/12/06 11:32:00;;;;;;;;;42.75;37.00;;;;;8.37;70.72;101722.88;5010506;28;45478;-75
2022/12/06 11:34:25;;;;;;;;;41.50;36.25;;;;;8.40;70.62;101722.81;5003119;28;45469;-75
2022/12/06 11:36:53;;;;;;;;;35.33;30.00;;;;;8.41;70.62;101721.94;5003263;28;45423;-78
2022/12/06 11:39:19;;;;;;;;;38.50;36.25;;;;;8.41;70.97;101715.72;5005220;28;45487;-78
2022/12/06 11:41:48;;;;;;;;;44.50;36.75;;;;;8.43;70.49;101713.97;5000926;28;45449;-78
2022/12/06 11:44:24;;;;;;;;;44.00;38.50;;;;;8.43;70.74;101704.19;5005697;28;45424;-78
2022/12/06 11:46:59;;;;;;;;;44.50;37.25;;;;;8.43;70.65;101701.53;5003731;28;45548;-78
2022/12/06 11:49:37;;;;;;;;;40.00;33.75;;;;;8.40;70.81;101696.22;5004801;28;45416;-77
2022/12/06 11:52:12;;;;;;;;;50.75;37.75;;;;;8.44;70.81;101697.13;5002114;28;45392;-78
2022/12/06 11:54:42;;;;;;;;;45.50;39.00;;;;;8.42;70.84;101688.22;5002778;28;45595;-77